createdAt,value
2019-01-06T00:00:00.597Z,5.07
2019-01-06T00:03:01.921Z,4.30
2019-01-06T00:05:48.377Z,4.43
2019-01-06T00:08:37.558Z,4.33
2019-01-06T00:11:40.924Z,4.30
2019-01-06T00:14:33.053Z,4.10
2019-01-06T00:17:25.893Z,4.50
2019-01-06T00:20:12.306Z,4.10
2019-01-06T00:22:58.972Z,4.30
2019-01-06T00:26:00.644Z,4.17
2019-01-06T00:28:47.339Z,3.60
2019-01-06T00:31:39.782Z,3.80
2019-01-06T00:34:38.477Z,3.80
2019-01-06T00:37:28.232Z,3.50
2019-01-06T00:40:15.063Z,4.00
2019-01-06T00:43:07.254Z,4.00
2019-01-06T00:46:10.106Z,4.03
2019-01-06T00:48:59.072Z,3.77
2019-01-06T00:52:03.437Z,3.83
2019-01-06T00:54:49.922Z,3.97
2019-01-06T00:57:36.677Z,3.73
2019-01-06T01:00:26.123Z,3.80
2019-01-06T01:03:29.403Z,3.50
2019-01-06T01:06:21.527Z,3.93
2019-01-06T01:09:43.487Z,3.60
2019-01-06T01:12:32.593Z,3.70
2019-01-06T01:15:27.798Z,3.50
2019-01-06T01:18:16.902Z,3.20
2019-01-06T01:21:17.998Z,3.50
2019-01-06T01:24:19.322Z,3.27
2019-01-06T01:27:21.963Z,3.67
2019-01-06T01:30:14.754Z,3.43
2019-01-06T01:33:06.867Z,3.60
2019-01-06T01:36:09.541Z,3.47
2019-01-06T01:39:11.462Z,3.60
2019-01-06T01:42:14.602Z,3.50
2019-01-06T01:45:01.224Z,4.00
2019-01-06T01:48:02.454Z,4.10
2019-01-06T01:50:57.523Z,4.20
2019-01-06T01:54:01.072Z,4.33
2019-01-06T01:56:56.152Z,4.13
2019-01-06T02:00:00.514Z,4.23
2019-01-06T02:02:49.919Z,4.27
2019-01-06T02:05:39.084Z,4.37
2019-01-06T02:08:37.738Z,4.50
2019-01-06T02:11:24.348Z,4.70
2019-01-06T02:14:22.976Z,4.60
2019-01-06T02:17:26.199Z,3.90
2019-01-06T02:20:21.383Z,4.07
2019-01-06T02:23:16.957Z,4.37
2019-01-06T02:26:09.156Z,3.70
2019-01-06T02:29:01.486Z,4.10
2019-01-06T02:32:05.773Z,4.30
2019-01-06T02:35:10.446Z,3.97
2019-01-06T02:37:59.492Z,3.90
2019-01-06T02:40:58.092Z,3.67
2019-01-06T02:43:47.443Z,3.60
2019-01-06T02:46:50.143Z,3.90
2019-01-06T02:49:52.986Z,3.90
2019-01-06T02:52:39.551Z,4.33
2019-01-06T02:55:26.053Z,3.83
2019-01-06T02:58:21.453Z,4.10
2019-01-06T03:01:16.982Z,4.00
2019-01-06T03:04:19.843Z,4.40
2019-01-06T03:07:14.952Z,4.53
2019-01-06T03:10:01.520Z,4.40
2019-01-06T03:12:48.365Z,4.40
2019-01-06T03:15:34.909Z,3.80
2019-01-06T03:18:36.486Z,4.50
2019-01-06T03:21:22.883Z,4.23
2019-01-06T03:24:11.503Z,4.47
2019-01-06T03:26:58.137Z,4.10
2019-01-06T03:29:59.498Z,4.60
2019-01-06T03:32:46.382Z,5.17
2019-01-06T03:35:41.814Z,4.40
2019-01-06T03:38:28.717Z,4.73
2019-01-06T03:41:33.238Z,4.60
2019-01-06T03:44:22.243Z,4.93
2019-01-06T03:47:08.682Z,4.60
2019-01-06T03:49:55.111Z,5.17
2019-01-06T03:52:41.988Z,5.17
2019-01-06T03:55:31.127Z,4.67
2019-01-06T03:58:29.299Z,4.93
2019-01-06T04:01:32.410Z,4.77
2019-01-06T04:04:18.777Z,4.93
2019-01-06T04:07:21.866Z,5.00
2019-01-06T04:10:14.008Z,4.73
2019-01-06T04:13:09.646Z,5.13
2019-01-06T04:16:07.981Z,5.40
2019-01-06T04:19:09.807Z,5.37
2019-01-06T04:21:56.430Z,5.20
2019-01-06T04:24:43.117Z,5.17
2019-01-06T04:27:44.341Z,5.53
2019-01-06T04:30:39.610Z,5.40
2019-01-06T04:33:28.700Z,5.93
2019-01-06T04:36:15.281Z,5.40
2019-01-06T04:39:07.915Z,4.77
2019-01-06T04:42:12.061Z,5.30
2019-01-06T04:45:07.085Z,5.27
2019-01-06T04:47:59.210Z,5.43
2019-01-06T04:50:46.057Z,5.27
2019-01-06T04:53:44.487Z,5.00
2019-01-06T04:56:39.591Z,5.83
2019-01-06T04:59:38.183Z,5.40
2019-01-06T05:02:27.628Z,5.17
2019-01-06T05:05:17.238Z,4.87
2019-01-06T05:08:04.216Z,5.23
2019-01-06T05:11:07.437Z,4.80
2019-01-06T05:13:53.802Z,5.13
2019-01-06T05:16:56.775Z,5.40
2019-01-06T05:20:01.207Z,5.40
2019-01-06T05:22:50.306Z,5.23
2019-01-06T05:25:37.245Z,4.73
2019-01-06T05:28:23.916Z,5.17
2019-01-06T05:31:13.574Z,5.20
2019-01-06T05:34:16.855Z,5.00
2019-01-06T05:37:03.402Z,5.10
2019-01-06T05:39:56.147Z,4.80
2019-01-06T05:42:59.062Z,5.50
2019-01-06T05:46:00.361Z,5.30
2019-01-06T05:49:01.600Z,5.83
2019-01-06T05:52:04.753Z,5.50
2019-01-06T05:55:07.556Z,6.13
2019-01-06T05:58:05.683Z,6.17
2019-01-06T06:00:54.933Z,6.13
2019-01-06T06:03:41.911Z,5.97
2019-01-06T06:06:40.167Z,5.83
2019-01-06T06:09:26.542Z,6.30
2019-01-06T06:12:24.811Z,6.40
2019-01-06T06:15:20.482Z,6.37
2019-01-06T06:18:23.581Z,5.87
2019-01-06T06:21:26.343Z,6.33
2019-01-06T06:24:12.842Z,5.70
2019-01-06T06:27:15.874Z,5.73
2019-01-06T06:30:18.606Z,5.60
2019-01-06T06:33:21.350Z,5.67
2019-01-06T06:36:10.558Z,5.83
2019-01-06T06:39:13.281Z,5.60
2019-01-06T06:42:08.509Z,6.10
2019-01-06T06:44:57.631Z,6.07
2019-01-06T06:47:52.921Z,6.47
2019-01-06T06:50:46.138Z,6.13
2019-01-06T06:53:32.803Z,6.57
2019-01-06T06:56:35.541Z,6.10
2019-01-06T06:59:38.197Z,6.30
2019-01-06T07:02:34.571Z,6.30
2019-01-06T07:05:23.990Z,6.10
2019-01-06T07:08:10.936Z,6.50
2019-01-06T07:10:57.528Z,5.90
2019-01-06T07:14:12.322Z,6.30
2019-01-06T07:17:52.523Z,6.43
2019-01-06T07:20:55.175Z,6.30
2019-01-06T07:23:41.807Z,6.40
2019-01-06T07:26:39.917Z,6.00
2019-01-06T07:29:28.957Z,5.97
2019-01-06T07:32:15.490Z,6.17
2019-01-06T07:35:19.896Z,6.83
2019-01-06T07:38:18.317Z,6.10
2019-01-06T07:41:11.143Z,7.23
2019-01-06T07:44:00.673Z,6.70
2019-01-06T07:47:03.195Z,6.87
2019-01-06T07:49:49.657Z,8.07
2019-01-06T07:52:39.508Z,7.67
2019-01-06T07:55:29.483Z,7.53
2019-01-06T07:58:25.076Z,7.37
2019-01-06T08:01:27.872Z,7.07
2019-01-06T08:04:14.318Z,7.17
2019-01-06T08:07:15.719Z,7.40
2019-01-06T08:10:11.307Z,6.20
2019-01-06T08:13:14.711Z,6.23
2019-01-06T08:16:13.057Z,6.60
2019-01-06T08:19:08.392Z,5.73
2019-01-06T08:22:11.200Z,6.30
2019-01-06T08:25:15.600Z,6.10
2019-01-06T08:28:18.222Z,6.50
2019-01-06T08:31:21.101Z,6.40
2019-01-06T08:34:23.746Z,6.37
2019-01-06T08:37:12.863Z,6.27
2019-01-06T08:39:59.535Z,6.83
2019-01-06T08:42:48.508Z,7.57
2019-01-06T08:45:51.411Z,7.00
2019-01-06T08:48:40.499Z,7.03
2019-01-06T08:51:43.541Z,7.47
2019-01-06T08:54:46.235Z,7.87
2019-01-06T08:57:49.159Z,7.70
2019-01-06T09:00:51.814Z,7.00
2019-01-06T09:03:44.130Z,7.90
2019-01-06T09:06:47.585Z,6.63
2019-01-06T09:09:50.355Z,6.40
2019-01-06T09:12:43.038Z,7.50
2019-01-06T09:15:41.602Z,7.27
2019-01-06T09:18:42.887Z,7.40
2019-01-06T09:21:35.947Z,7.20
2019-01-06T09:24:31.841Z,7.40
2019-01-06T09:27:20.986Z,8.13
2019-01-06T09:30:20.899Z,7.90
2019-01-06T09:33:10.083Z,8.23
2019-01-06T09:36:13.364Z,8.43
2019-01-06T09:38:59.847Z,8.57
2019-01-06T09:41:49.226Z,8.70
2019-01-06T09:44:47.652Z,8.30
2019-01-06T09:47:34.090Z,8.07
2019-01-06T09:50:38.367Z,7.60
2019-01-06T09:53:24.957Z,7.63
2019-01-06T09:56:28.155Z,8.30
2019-01-06T09:59:15.473Z,7.97
2019-01-06T10:02:18.657Z,7.50
2019-01-06T10:05:08.442Z,7.80
2019-01-06T10:08:03.991Z,7.57
2019-01-06T10:10:51.041Z,7.80
2019-01-06T10:13:54.126Z,7.70
2019-01-06T10:16:40.731Z,8.20
2019-01-06T10:19:36.039Z,7.70
2019-01-06T10:22:31.713Z,7.40
2019-01-06T10:25:30.282Z,7.20
2019-01-06T10:28:23.568Z,6.93
2019-01-06T10:31:28.056Z,7.37
2019-01-06T10:34:29.233Z,7.20
2019-01-06T10:37:32.051Z,6.60
2019-01-06T10:40:18.746Z,7.33
2019-01-06T10:43:05.408Z,6.47
2019-01-06T10:46:08.600Z,6.40
2019-01-06T10:49:13.025Z,6.33
2019-01-06T10:52:03.109Z,5.50
2019-01-06T10:54:55.668Z,6.37
2019-01-06T10:57:48.526Z,6.37
2019-01-06T11:00:40.717Z,6.23
2019-01-06T11:03:43.791Z,6.30
2019-01-06T11:06:41.842Z,6.80
2019-01-06T11:09:43.261Z,6.33
2019-01-06T11:12:46.372Z,6.17
2019-01-06T11:15:32.891Z,7.23
2019-01-06T11:18:28.491Z,7.07
2019-01-06T11:21:20.877Z,7.37
2019-01-06T11:24:11.035Z,7.40
2019-01-06T11:26:58.059Z,7.07
2019-01-06T11:29:48.068Z,6.60
2019-01-06T11:32:43.705Z,6.37
2019-01-06T11:35:45.557Z,6.50
2019-01-06T11:38:38.517Z,5.77
2019-01-06T11:41:28.379Z,5.90
2019-01-06T11:44:31.568Z,6.23
2019-01-06T11:47:34.404Z,5.80
2019-01-06T11:50:37.094Z,5.77
2019-01-06T11:53:39.869Z,6.03
2019-01-06T11:56:38.281Z,5.43
2019-01-06T11:59:30.845Z,5.83
2019-01-06T12:02:39.043Z,5.97
2019-01-06T12:05:26.839Z,5.33
2019-01-06T12:08:30.820Z,5.43
2019-01-06T12:11:33.663Z,5.60
2019-01-06T12:14:36.922Z,5.13
2019-01-06T12:17:38.460Z,6.07
2019-01-06T12:20:25.285Z,5.30
2019-01-06T12:23:14.584Z,5.23
2019-01-06T12:26:01.156Z,5.53
2019-01-06T12:28:47.678Z,5.50
2019-01-06T12:31:34.446Z,4.90
2019-01-06T12:34:30.674Z,5.37
2019-01-06T12:37:20.305Z,4.80
2019-01-06T12:40:16.624Z,4.60
2019-01-06T12:43:12.385Z,4.80
2019-01-06T12:46:01.578Z,5.43
2019-01-06T12:48:54.274Z,6.83
2019-01-06T12:51:43.739Z,4.77
2019-01-06T12:54:38.070Z,4.33
2019-01-06T12:57:24.969Z,4.37
2019-01-06T13:00:27.807Z,4.23
2019-01-06T13:03:29.254Z,4.43
2019-01-06T13:06:18.658Z,3.57
2019-01-06T13:09:22.724Z,4.00
2019-01-06T13:12:18.429Z,3.60
2019-01-06T13:15:15.271Z,3.77
2019-01-06T13:18:18.545Z,4.00
2019-01-06T13:21:05.145Z,4.03
2019-01-06T13:23:54.447Z,4.53
2019-01-06T13:26:44.500Z,4.20
2019-01-06T13:29:34.507Z,4.27
2019-01-06T13:32:23.578Z,3.90
2019-01-06T13:35:26.832Z,4.60
2019-01-06T13:38:13.760Z,4.20
2019-01-06T13:41:16.656Z,4.50
2019-01-06T13:44:11.832Z,4.57
2019-01-06T13:47:04.848Z,5.07
2019-01-06T13:49:57.532Z,4.80
2019-01-06T13:52:49.816Z,5.10
2019-01-06T13:55:52.527Z,4.73
2019-01-06T13:58:42.729Z,5.00
2019-01-06T14:01:38.242Z,5.93
2019-01-06T14:04:28.191Z,5.87
2019-01-06T14:07:26.822Z,5.50
2019-01-06T14:10:16.921Z,5.47
2019-01-06T14:13:20.042Z,5.30
2019-01-06T14:16:22.886Z,4.87
2019-01-06T14:19:18.617Z,5.00
2019-01-06T14:22:21.885Z,5.10
2019-01-06T14:25:17.155Z,5.07
2019-01-06T14:28:20.602Z,5.33
2019-01-06T14:31:15.928Z,5.40
2019-01-06T14:34:19.189Z,5.27
2019-01-06T14:37:08.449Z,4.80
2019-01-06T14:39:58.139Z,5.87
2019-01-06T14:43:02.548Z,5.63
2019-01-06T14:45:49.756Z,5.83
2019-01-06T14:48:36.726Z,5.37
2019-01-06T14:51:29.080Z,5.23
2019-01-06T14:54:16.016Z,5.13
2019-01-06T14:57:20.462Z,5.60
2019-01-06T15:00:24.710Z,5.50
2019-01-06T15:03:13.904Z,5.90
2019-01-06T15:06:00.992Z,5.70
2019-01-06T15:08:53.686Z,6.10
2019-01-06T15:11:57.037Z,6.20
2019-01-06T15:14:52.871Z,6.90
2019-01-06T15:17:45.083Z,6.57
2019-01-06T15:20:46.906Z,6.40
2019-01-06T15:23:45.865Z,6.30
2019-01-06T15:26:47.531Z,6.90
2019-01-06T15:29:50.858Z,7.40
2019-01-06T15:32:43.624Z,7.33
2019-01-06T15:35:46.858Z,6.83
2019-01-06T15:38:33.423Z,7.43
2019-01-06T15:41:36.255Z,6.80
2019-01-06T15:44:39.565Z,7.10
2019-01-06T15:47:42.371Z,7.50
2019-01-06T15:50:45.095Z,6.93
2019-01-06T15:53:40.541Z,7.10
2019-01-06T15:56:30.162Z,7.27
2019-01-06T15:59:17.963Z,7.30
2019-01-06T16:02:13.551Z,7.73
2019-01-06T16:05:11.937Z,7.37
2019-01-06T16:08:14.991Z,6.83
2019-01-06T16:11:02.243Z,7.50
2019-01-06T16:14:07.598Z,7.67
2019-01-06T16:16:57.404Z,6.90
2019-01-06T16:20:02.195Z,7.00
2019-01-06T16:22:48.947Z,7.20
2019-01-06T16:25:48.044Z,7.50
2019-01-06T16:28:51.351Z,7.53
2019-01-06T16:31:43.726Z,7.67
2019-01-06T16:34:33.610Z,8.40
2019-01-06T16:37:36.761Z,7.93
2019-01-06T16:40:38.213Z,8.40
2019-01-06T16:43:25.241Z,9.00
2019-01-06T16:46:28.097Z,9.43
2019-01-06T16:49:24.016Z,9.70
2019-01-06T16:52:11.062Z,9.33
2019-01-06T16:55:14.578Z,9.90
2019-01-06T16:58:01.307Z,11.87
2019-01-06T17:00:59.882Z,10.80
2019-01-06T17:03:47.210Z,11.27
2019-01-06T17:06:46.092Z,11.03
2019-01-06T17:09:50.554Z,10.40
2019-01-06T17:12:46.076Z,12.87
2019-01-06T17:15:49.301Z,10.97
2019-01-06T17:18:41.695Z,9.93
2019-01-06T17:21:31.235Z,10.90
2019-01-06T17:24:18.943Z,12.47
2019-01-06T17:27:23.467Z,14.87
2019-01-06T17:30:15.828Z,12.07
2019-01-06T17:33:06.090Z,16.37
2019-01-06T17:36:11.412Z,12.47
2019-01-06T17:38:58.089Z,10.07
2019-01-06T17:42:01.558Z,11.30
2019-01-06T17:45:04.343Z,10.17
2019-01-06T17:47:56.771Z,10.27
2019-01-06T17:50:43.912Z,10.27
2019-01-06T17:53:36.572Z,10.00
2019-01-06T17:56:29.256Z,10.23
2019-01-06T17:59:21.385Z,9.97
2019-01-06T18:02:10.977Z,9.73
2019-01-06T18:04:58.192Z,9.97
2019-01-06T18:07:44.971Z,8.63
2019-01-06T18:10:37.586Z,10.50
2019-01-06T18:13:27.254Z,9.40
2019-01-06T18:16:32.580Z,10.20
2019-01-06T18:19:25.434Z,9.10
2019-01-06T18:22:18.165Z,9.47
2019-01-06T18:25:05.694Z,8.90
2019-01-06T18:27:55.206Z,10.00
2019-01-06T18:30:51.633Z,10.60
2019-01-06T18:33:54.731Z,10.73
2019-01-06T18:36:58.281Z,13.57
2019-01-06T18:39:51.850Z,10.73
2019-01-06T18:42:47.549Z,11.07
2019-01-06T18:45:50.639Z,10.37
2019-01-06T18:48:46.441Z,10.27
2019-01-06T18:51:39.147Z,10.23
2019-01-06T18:54:26.195Z,9.67
2019-01-06T18:57:19.575Z,11.17
2019-01-06T19:00:20.250Z,10.23
2019-01-06T19:03:13.276Z,10.37
2019-01-06T19:06:00.462Z,11.50
2019-01-06T19:08:47.614Z,10.90
2019-01-06T19:11:40.247Z,10.70
2019-01-06T19:14:36.044Z,10.53
2019-01-06T19:17:40.434Z,12.77
2019-01-06T19:20:22.751Z,10.50
2019-01-06T19:23:19.159Z,11.80
2019-01-06T19:26:24.473Z,11.90
2019-01-06T19:29:23.157Z,11.27
2019-01-06T19:32:26.836Z,11.30
2019-01-06T19:35:13.686Z,11.20
2019-01-06T19:38:15.347Z,10.37
2019-01-06T19:41:02.388Z,11.50
2019-01-06T19:43:55.436Z,11.27
2019-01-06T19:46:58.480Z,11.00
2019-01-06T19:50:01.946Z,11.10
2019-01-06T19:53:05.110Z,10.63
2019-01-06T19:56:06.435Z,10.07
2019-01-06T19:59:09.853Z,10.40
2019-01-06T20:02:12.827Z,11.40
2019-01-06T20:05:08.925Z,11.40
2019-01-06T20:07:56.285Z,10.40
2019-01-06T20:11:00.017Z,10.70
2019-01-06T20:13:49.744Z,11.93
2019-01-06T20:16:39.534Z,11.40
2019-01-06T20:19:42.896Z,11.23
2019-01-06T20:22:32.590Z,11.90
2019-01-06T20:25:36.324Z,12.17
2019-01-06T20:28:28.884Z,11.43
2019-01-06T20:31:15.951Z,12.50
2019-01-06T20:34:19.227Z,12.07
2019-01-06T20:37:22.508Z,11.97
2019-01-06T20:40:20.632Z,11.80
2019-01-06T20:43:24.147Z,12.57
2019-01-06T20:46:20.018Z,12.10
2019-01-06T20:49:18.750Z,12.23
2019-01-06T20:52:21.952Z,13.33
2019-01-06T20:55:11.074Z,12.53
2019-01-06T20:57:57.987Z,13.17
2019-01-06T21:00:50.347Z,12.90
2019-01-06T21:03:43.025Z,12.33
2019-01-06T21:06:30.033Z,12.53
2019-01-06T21:09:17.116Z,11.60
2019-01-06T21:12:18.587Z,12.53
2019-01-06T21:15:17.741Z,10.83
2019-01-06T21:18:20.849Z,11.27
2019-01-06T21:21:23.744Z,10.77
2019-01-06T21:24:10.784Z,12.27
2019-01-06T21:26:57.351Z,11.67
2019-01-06T21:29:44.146Z,11.33
2019-01-06T21:32:36.438Z,11.53
2019-01-06T21:35:39.130Z,10.63
2019-01-06T21:38:34.345Z,10.57
2019-01-06T21:41:33.200Z,10.83
2019-01-06T21:44:29.029Z,10.40
2019-01-06T21:47:18.820Z,10.37
2019-01-06T21:50:12.541Z,9.87
2019-01-06T21:53:02.260Z,10.13
2019-01-06T21:55:51.765Z,10.80
2019-01-06T21:58:47.025Z,10.70
2019-01-06T22:01:36.676Z,10.03
2019-01-06T22:04:26.154Z,10.70
2019-01-06T22:07:13.041Z,11.03
2019-01-06T22:10:02.371Z,12.10
2019-01-06T22:12:57.589Z,11.13
2019-01-06T22:16:00.201Z,12.73
2019-01-06T22:18:55.450Z,12.57
2019-01-06T22:21:42.370Z,13.27
2019-01-06T22:24:47.119Z,13.70
2019-01-06T22:27:39.305Z,13.97
2019-01-06T22:30:42.433Z,15.17
2019-01-06T22:33:40.818Z,13.87
2019-01-06T22:36:38.934Z,14.27
2019-01-06T22:39:41.851Z,13.83
2019-01-06T22:42:34.034Z,15.33
2019-01-06T22:45:20.914Z,14.80
2019-01-06T22:48:23.848Z,14.67
2019-01-06T22:51:10.329Z,15.77
2019-01-06T22:54:08.581Z,15.77
2019-01-06T22:56:55.550Z,16.20
2019-01-06T22:59:45.371Z,16.73
2019-01-06T23:02:38.015Z,16.07
2019-01-06T23:05:41.168Z,16.83
2019-01-06T23:08:44.042Z,16.70
2019-01-06T23:11:48.340Z,16.53
2019-01-06T23:14:37.895Z,16.37
2019-01-06T23:17:41.294Z,16.10
2019-01-06T23:20:27.750Z,16.40
2019-01-06T23:23:23.246Z,17.23
2019-01-06T23:26:15.490Z,16.60
2019-01-06T23:29:18.188Z,16.83
2019-01-06T23:32:20.967Z,16.43
2019-01-06T23:35:13.184Z,17.47
2019-01-06T23:37:59.990Z,16.33
2019-01-06T23:40:46.770Z,17.30
2019-01-06T23:43:39.459Z,16.27
2019-01-06T23:46:42.684Z,17.70
2019-01-06T23:49:43.948Z,15.87
2019-01-06T23:52:33.104Z,17.20
2019-01-06T23:55:25.316Z,16.00
2019-01-06T23:58:23.529Z,17.37
